createdAt,value
2019-05-30T00:00:51.695Z,50.1
2019-05-30T00:02:51.818Z,50.3
2019-05-30T00:04:51.429Z,50.4
2019-05-30T00:06:51.427Z,50.3
2019-05-30T00:08:51.663Z,50.3
2019-05-30T00:10:51.479Z,50.3
2019-05-30T00:12:51.234Z,50.6
2019-05-30T00:14:52.577Z,50.3
2019-05-30T00:16:51.264Z,50.6
2019-05-30T00:18:51.195Z,50.5
2019-05-30T00:20:51.341Z,50.6
2019-05-30T00:22:51.182Z,50.4
2019-05-30T00:24:51.275Z,50.8
2019-05-30T00:26:51.225Z,51
2019-05-30T00:28:51.960Z,51.1
2019-05-30T00:30:51.158Z,51
2019-05-30T00:32:51.356Z,51
2019-05-30T00:34:51.499Z,51.1
2019-05-30T00:36:50.972Z,51
2019-05-30T00:38:51.027Z,51.3
2019-05-30T00:40:50.988Z,51.6
2019-05-30T00:42:50.802Z,51.9
2019-05-30T00:44:51.089Z,52
2019-05-30T00:46:50.783Z,52.3
2019-05-30T00:48:50.774Z,52.4
2019-05-30T00:50:50.890Z,52.1
2019-05-30T00:52:50.650Z,52.4
2019-05-30T00:54:50.627Z,52.9
2019-05-30T00:56:50.633Z,53.1
2019-05-30T00:58:50.594Z,53.3
2019-05-30T01:00:51.560Z,53.3
2019-05-30T01:02:50.958Z,53.6
2019-05-30T01:04:50.510Z,53.5
2019-05-30T01:06:50.412Z,53.9
2019-05-30T01:08:50.546Z,53.9
2019-05-30T01:10:50.383Z,54.1
2019-05-30T01:12:50.280Z,54.4
2019-05-30T01:14:50.257Z,54.2
2019-05-30T01:16:50.686Z,54.5
2019-05-30T01:18:50.059Z,54.7
2019-05-30T01:20:50.567Z,54.6
2019-05-30T01:22:50.217Z,54.4
2019-05-30T01:24:50.021Z,54.9
2019-05-30T01:26:50.051Z,54.6
2019-05-30T01:28:49.936Z,54.1
2019-05-30T01:30:59.429Z,54.2
2019-05-30T01:32:49.889Z,54.1
2019-05-30T01:34:49.833Z,54.6
2019-05-30T01:36:49.915Z,54.2
2019-05-30T01:38:49.823Z,54.5
2019-05-30T01:40:49.599Z,54.7
2019-05-30T01:42:49.651Z,54.6
2019-05-30T01:44:49.925Z,54.5
2019-05-30T01:46:49.593Z,54.3
2019-05-30T01:48:49.835Z,54.5
2019-05-30T01:50:49.795Z,54.3
2019-05-30T01:52:49.447Z,54.3
2019-05-30T01:54:49.462Z,54.5
2019-05-30T01:56:49.411Z,54.5
2019-05-30T01:58:49.375Z,54.2
2019-05-30T02:00:49.526Z,54.6
2019-05-30T02:02:49.663Z,55
2019-05-30T02:04:49.192Z,55
2019-05-30T02:06:49.831Z,55.1
2019-05-30T02:08:49.362Z,54.8
2019-05-30T02:10:49.389Z,54.7
2019-05-30T02:12:49.145Z,55.3
2019-05-30T02:14:49.230Z,55.4
2019-05-30T02:16:49.123Z,55.5
2019-05-30T02:18:49.076Z,55.1
2019-05-30T02:20:49.110Z,54.7
2019-05-30T02:22:49.047Z,55
2019-05-30T02:24:49.912Z,54.6
2019-05-30T02:26:49.040Z,54.3
2019-05-30T02:28:49.051Z,54.5
2019-05-30T02:30:49.017Z,54.3
2019-05-30T02:32:48.885Z,54.3
2019-05-30T02:34:48.916Z,54
2019-05-30T02:36:48.708Z,54
2019-05-30T02:38:48.855Z,54
2019-05-30T02:40:48.886Z,54.2
2019-05-30T02:42:48.787Z,53.7
2019-05-30T02:44:48.922Z,53.9
2019-05-30T02:46:48.671Z,54.5
2019-05-30T02:48:58.862Z,54.1
2019-05-30T02:50:48.853Z,54.3
2019-05-30T02:52:49.662Z,54.4
2019-05-30T02:54:48.497Z,54.5
2019-05-30T02:56:48.827Z,53.7
2019-05-30T02:58:48.626Z,54.1
2019-05-30T03:00:48.576Z,54.4
2019-05-30T03:02:48.458Z,53.5
2019-05-30T03:04:48.538Z,53.4
2019-05-30T03:06:48.797Z,52.4
2019-05-30T03:08:48.650Z,52
2019-05-30T03:10:48.923Z,51.4
2019-05-30T03:12:48.511Z,51.3
2019-05-30T03:14:48.618Z,51.1
2019-05-30T03:16:48.361Z,50.6
2019-05-30T03:18:48.417Z,50.3
2019-05-30T03:20:48.372Z,49.6
2019-05-30T03:22:48.413Z,49.5
2019-05-30T03:24:48.254Z,49.5
2019-05-30T03:26:48.611Z,50.2
2019-05-30T03:28:53.110Z,49.3
2019-05-30T03:30:49.345Z,49.3
2019-05-30T03:33:05.157Z,49.2
2019-05-30T03:34:49.973Z,49.2
2019-05-30T03:36:48.398Z,49.6
2019-05-30T03:38:48.644Z,49.6
2019-05-30T03:40:48.185Z,48.9
2019-05-30T03:42:48.433Z,49.1
2019-05-30T03:44:48.301Z,49.7
2019-05-30T03:46:58.700Z,49.6
2019-05-30T03:48:53.127Z,49.1
2019-05-30T03:50:52.094Z,49.5
2019-05-30T03:52:48.801Z,50.1
2019-05-30T03:54:49.853Z,49.9
2019-05-30T03:56:59.696Z,50.6
2019-05-30T04:00:55.289Z,50.7
2019-05-30T04:02:59.616Z,50.5
2019-05-30T04:04:58.677Z,50.6
2019-05-30T04:06:58.471Z,50.7
2019-05-30T04:08:55.532Z,50.1
2019-05-30T04:10:53.398Z,50.6
2019-05-30T04:14:56.885Z,51.2
2019-05-30T04:16:48.424Z,50.6
2019-05-30T04:18:48.441Z,50.4
2019-05-30T04:20:48.374Z,50.6
2019-05-30T04:22:48.301Z,50.4
2019-05-30T04:24:48.436Z,50.8
2019-05-30T04:26:48.341Z,50.4
2019-05-30T04:28:48.329Z,51.3
2019-05-30T04:30:48.260Z,51.5
2019-05-30T04:32:48.771Z,52.1
2019-05-30T04:34:48.284Z,51.7
2019-05-30T04:36:52.951Z,54.4
2019-05-30T04:38:48.484Z,54.1
2019-05-30T04:40:48.264Z,54.8
2019-05-30T04:42:48.422Z,57.5
2019-05-30T04:44:48.383Z,56.2
2019-05-30T04:46:48.332Z,55.8
2019-05-30T04:48:48.318Z,55.6
2019-05-30T04:50:48.341Z,54.9
2019-05-30T04:52:48.259Z,55.5
2019-05-30T04:54:48.318Z,55.1
2019-05-30T04:56:48.334Z,55.1
2019-05-30T04:58:48.151Z,55.1
2019-05-30T05:00:48.745Z,54.5
2019-05-30T05:02:48.438Z,53.1
2019-05-30T05:04:48.252Z,53.6
2019-05-30T05:06:48.202Z,53.7
2019-05-30T05:08:48.315Z,54
2019-05-30T05:10:48.132Z,53.8
2019-05-30T05:12:48.306Z,52.9
2019-05-30T05:14:48.416Z,53
2019-05-30T05:16:48.060Z,52.9
2019-05-30T05:18:48.122Z,53
2019-05-30T05:20:48.243Z,52.7
2019-05-30T05:22:49.891Z,52.7
2019-05-30T05:24:48.233Z,52.3
2019-05-30T05:26:48.404Z,52.7
2019-05-30T05:28:48.132Z,53.1
2019-05-30T05:30:48.270Z,53
2019-05-30T05:32:48.249Z,52.8
2019-05-30T05:34:48.060Z,52.3
2019-05-30T05:36:48.042Z,52
2019-05-30T05:38:48.243Z,51.8
2019-05-30T05:40:48.094Z,50.3
2019-05-30T05:42:48.381Z,50.4
2019-05-30T05:44:48.239Z,48.6
2019-05-30T05:46:48.050Z,48.7
2019-05-30T05:48:47.994Z,49
2019-05-30T05:50:48.208Z,48.5
2019-05-30T05:52:48.099Z,48.3
2019-05-30T05:54:48.120Z,47.6
2019-05-30T05:56:48.114Z,46.4
2019-05-30T05:58:48.159Z,45.7
2019-05-30T06:00:48.524Z,44.4
2019-05-30T06:02:48.305Z,45.1
2019-05-30T06:04:48.252Z,44.7
2019-05-30T06:06:48.329Z,44.3
2019-05-30T06:08:48.548Z,44.7
2019-05-30T06:10:48.248Z,44.8
2019-05-30T06:12:48.624Z,44
2019-05-30T06:14:48.481Z,43.1
2019-05-30T06:16:48.443Z,42.5
2019-05-30T06:18:48.446Z,42.9
2019-05-30T06:20:48.769Z,41.2
2019-05-30T06:22:48.699Z,40.9
2019-05-30T06:24:49.415Z,40.3
2019-05-30T06:26:48.697Z,38.9
2019-05-30T06:28:48.657Z,38.7
2019-05-30T06:30:48.787Z,39.3
2019-05-30T06:32:49.138Z,40.2
2019-05-30T06:34:48.902Z,39.2
2019-05-30T06:36:49.099Z,39.4
2019-05-30T06:38:49.157Z,40
2019-05-30T06:40:49.090Z,39.3
2019-05-30T06:42:49.220Z,38.8
2019-05-30T06:44:49.492Z,39.5
2019-05-30T06:46:49.301Z,38.6
2019-05-30T06:48:49.432Z,39.6
2019-05-30T06:50:49.521Z,40.1
2019-05-30T06:52:49.559Z,40
2019-05-30T06:54:49.676Z,39.9
2019-05-30T06:56:49.849Z,39.1
2019-05-30T06:58:49.787Z,39.3
2019-05-30T07:00:50.120Z,39.1
2019-05-30T07:02:50.337Z,38.7
2019-05-30T07:04:52.491Z,38.8
2019-05-30T07:06:50.473Z,39
2019-05-30T07:08:50.483Z,38.8
2019-05-30T07:10:50.326Z,39.1
2019-05-30T07:12:50.491Z,39.9
2019-05-30T07:14:50.549Z,39.8
2019-05-30T07:16:50.721Z,40.3
2019-05-30T07:18:50.717Z,39.8
2019-05-30T07:20:51.124Z,40.7
2019-05-30T07:22:51.357Z,40
2019-05-30T07:24:51.290Z,39.7
2019-05-30T07:26:52.436Z,39.2
2019-05-30T07:28:52.443Z,40.2
2019-05-30T07:30:51.545Z,39.4
2019-05-30T07:32:52.549Z,39.1
2019-05-30T07:35:05.571Z,39.6
2019-05-30T07:36:51.404Z,39.2
2019-05-30T07:38:51.884Z,39
2019-05-30T07:40:51.819Z,38
2019-05-30T07:42:51.847Z,38.4
2019-05-30T07:44:53.098Z,38.9
2019-05-30T07:46:51.990Z,38.6
2019-05-30T07:48:52.086Z,38.7
2019-05-30T07:50:52.217Z,38.1
2019-05-30T07:52:52.277Z,36.3
2019-05-30T07:54:53.214Z,35.9
2019-05-30T07:56:52.608Z,36.6
2019-05-30T07:58:52.551Z,35.7
2019-05-30T08:00:52.721Z,35
2019-05-30T08:02:52.874Z,35.5
2019-05-30T08:04:52.863Z,35.6
2019-05-30T08:06:53.021Z,35
2019-05-30T08:08:53.302Z,34.8
2019-05-30T08:11:08.401Z,34.7
2019-05-30T08:12:53.374Z,34.9
2019-05-30T08:14:53.544Z,35.7
2019-05-30T08:16:53.543Z,36.4
2019-05-30T08:18:53.749Z,36.3
2019-05-30T08:20:54.000Z,36.3
2019-05-30T08:22:53.971Z,36.5
2019-05-30T08:24:54.187Z,36.5
2019-05-30T08:26:54.306Z,37.5
2019-05-30T08:28:54.623Z,38.2
2019-05-30T08:30:56.798Z,37.5
2019-05-30T08:32:54.599Z,36.9
2019-05-30T08:34:54.642Z,36.7
2019-05-30T08:36:54.649Z,37.4
2019-05-30T08:38:54.899Z,37.1
2019-05-30T08:40:54.969Z,36.7
2019-05-30T08:42:55.252Z,37.3
2019-05-30T08:44:55.294Z,37.2
2019-05-30T08:46:55.134Z,37.1
2019-05-30T08:48:55.328Z,36.4
2019-05-30T08:50:55.452Z,36.7
2019-05-30T08:52:55.348Z,36.8
2019-05-30T08:54:55.520Z,36.5
2019-05-30T08:56:55.725Z,36
2019-05-30T08:58:55.741Z,36.3
2019-05-30T09:00:55.878Z,34.9
2019-05-30T09:02:56.058Z,35.6
2019-05-30T09:04:56.082Z,35.3
2019-05-30T09:06:56.313Z,35.3
2019-05-30T09:08:56.412Z,35.1
2019-05-30T09:10:56.448Z,34.9
2019-05-30T09:12:56.526Z,35.2
2019-05-30T09:14:57.052Z,35.9
2019-05-30T09:16:57.105Z,35.9
2019-05-30T09:18:56.982Z,35.5
2019-05-30T09:20:57.200Z,35.6
2019-05-30T09:22:57.131Z,35.9
2019-05-30T09:24:57.354Z,36
2019-05-30T09:26:57.316Z,35.7
2019-05-30T09:28:57.415Z,35.4
2019-05-30T09:30:57.441Z,35.4
2019-05-30T09:32:57.965Z,34.8
2019-05-30T09:34:57.930Z,34.8
2019-05-30T09:36:57.969Z,34.8
2019-05-30T09:38:58.212Z,33.7
2019-05-30T09:40:59.334Z,34.4
2019-05-30T09:42:58.532Z,33.9
2019-05-30T09:44:59.012Z,34.8
2019-05-30T09:46:58.713Z,33.4
2019-05-30T09:48:58.828Z,32.9
2019-05-30T09:50:58.991Z,33.5
2019-05-30T09:52:59.252Z,34.1
2019-05-30T09:54:59.838Z,34.4
2019-05-30T09:56:59.502Z,33.6
2019-05-30T09:58:59.642Z,34.2
2019-05-30T10:00:59.892Z,34.1
2019-05-30T10:03:00.285Z,34.4
2019-05-30T10:05:00.016Z,34.7
2019-05-30T10:07:00.411Z,36
2019-05-30T10:09:00.349Z,36.3
2019-05-30T10:11:00.426Z,37
2019-05-30T10:13:00.637Z,37.1
2019-05-30T10:15:00.683Z,36.5
2019-05-30T10:17:00.753Z,36.2
2019-05-30T10:19:00.918Z,35.8
2019-05-30T10:21:02.215Z,36
2019-05-30T10:23:03.590Z,35.4
2019-05-30T10:25:01.162Z,34.2
2019-05-30T10:27:01.253Z,34.7
2019-05-30T10:29:01.430Z,33.5
2019-05-30T10:31:01.460Z,33.4
2019-05-30T10:33:01.745Z,32.4
2019-05-30T10:35:02.374Z,32
2019-05-30T10:37:01.985Z,32.6
2019-05-30T10:39:03.579Z,32
2019-05-30T10:41:02.156Z,31.6
2019-05-30T10:43:02.305Z,31
2019-05-30T10:45:02.723Z,31
2019-05-30T10:47:02.722Z,31
2019-05-30T10:49:02.807Z,31
2019-05-30T10:51:03.025Z,31.4
2019-05-30T10:53:02.967Z,31.7
2019-05-30T10:55:03.403Z,30.8
2019-05-30T10:57:03.568Z,31.7
2019-05-30T10:59:03.795Z,31.8
2019-05-30T11:01:03.848Z,32.1
2019-05-30T11:03:03.818Z,32.5
2019-05-30T11:05:04.522Z,33
2019-05-30T11:07:25.837Z,33.4
2019-05-30T11:09:06.234Z,33.9
2019-05-30T11:11:04.358Z,34.4
2019-05-30T11:15:05.685Z,33.4
2019-05-30T11:17:04.711Z,33.7
2019-05-30T11:19:07.530Z,34.1
2019-05-30T11:21:04.802Z,34
2019-05-30T11:23:05.132Z,34.4
2019-05-30T11:25:05.505Z,34.2
2019-05-30T11:27:05.570Z,34.6
2019-05-30T11:29:05.484Z,34.3
2019-05-30T11:31:05.534Z,35
2019-05-30T11:33:05.664Z,35.2
2019-05-30T11:35:05.658Z,35
2019-05-30T11:37:18.856Z,35.2
2019-05-30T11:39:07.165Z,34.9
2019-05-30T11:41:05.745Z,35.9
2019-05-30T11:43:05.834Z,34.5
2019-05-30T11:45:06.660Z,34.3
2019-05-30T11:47:06.346Z,33.4
2019-05-30T11:49:06.243Z,32.9
2019-05-30T11:51:06.548Z,33.3
2019-05-30T11:53:06.719Z,32.2
2019-05-30T11:55:06.926Z,31.2
2019-05-30T11:57:07.075Z,30.6
2019-05-30T11:59:07.031Z,30.9
2019-05-30T12:01:07.165Z,30.1
2019-05-30T12:03:07.342Z,28.2
2019-05-30T12:05:08.139Z,27.3
2019-05-30T12:07:07.856Z,27.2
2019-05-30T12:09:08.220Z,26.1
2019-05-30T12:11:08.556Z,25.8
2019-05-30T12:13:08.573Z,25.2
2019-05-30T12:15:09.595Z,23.8
2019-05-30T12:17:09.194Z,24.2
2019-05-30T12:19:09.404Z,24.7
2019-05-30T12:21:10.127Z,24.9
2019-05-30T12:23:10.204Z,24.8
2019-05-30T12:25:11.100Z,24.1
2019-05-30T12:27:12.424Z,24.3
2019-05-30T12:29:11.773Z,24.7
2019-05-30T12:31:11.574Z,25.1
2019-05-30T12:33:11.986Z,24.9
2019-05-30T12:35:16.324Z,25.5
2019-05-30T12:37:12.590Z,26.5
2019-05-30T12:39:13.074Z,27.2
2019-05-30T12:41:13.109Z,27.4
2019-05-30T12:43:13.324Z,29
2019-05-30T12:45:16.274Z,29.3
2019-05-30T12:47:13.851Z,29.7
2019-05-30T12:49:14.171Z,29.8
2019-05-30T12:51:14.408Z,30.9
2019-05-30T12:53:14.600Z,32.7
2019-05-30T12:55:14.693Z,34.2
2019-05-30T12:57:14.894Z,35.7
2019-05-30T12:59:15.077Z,38.1
2019-05-30T13:01:15.215Z,41.6
2019-05-30T13:03:16.162Z,42.9
2019-05-30T13:05:16.635Z,44.4
2019-05-30T13:07:15.331Z,52.8
2019-05-30T13:09:15.491Z,53.7
2019-05-30T13:11:15.456Z,57.3
2019-05-30T13:13:15.442Z,72.5
2019-05-30T13:15:16.179Z,78.6
2019-05-30T13:17:16.439Z,84.2
2019-05-30T13:19:15.440Z,85.1
2019-05-30T13:21:15.620Z,89.3
2019-05-30T13:23:15.251Z,91.2
2019-05-30T13:25:18.357Z,91.9
2019-05-30T13:27:15.307Z,93.1
2019-05-30T13:29:15.046Z,92.7
2019-05-30T13:31:14.852Z,92
2019-05-30T13:33:15.101Z,93.2
2019-05-30T13:35:15.262Z,93.7
2019-05-30T13:37:14.545Z,93.9
2019-05-30T13:39:14.545Z,95
2019-05-30T13:41:14.449Z,94.7
2019-05-30T13:43:14.514Z,94.8
2019-05-30T13:45:15.021Z,94.1
2019-05-30T13:47:14.339Z,93.3
2019-05-30T13:49:14.105Z,90.7
2019-05-30T13:51:15.077Z,87.4
2019-05-30T13:53:14.049Z,87.2
2019-05-30T13:55:14.037Z,86.4
2019-05-30T13:57:14.002Z,86.7
2019-05-30T13:59:13.628Z,85.2
2019-05-30T14:01:14.199Z,86.9
2019-05-30T14:03:13.776Z,84.1
2019-05-30T14:05:14.479Z,88.7
2019-05-30T14:07:13.547Z,89.2
2019-05-30T14:09:13.528Z,92.3
2019-05-30T14:11:14.857Z,94
2019-05-30T14:13:13.177Z,93.6
2019-05-30T14:15:14.676Z,92.7
2019-05-30T14:17:13.756Z,92.1
2019-05-30T14:19:13.120Z,90.8
2019-05-30T14:21:13.763Z,92.4
2019-05-30T14:23:12.868Z,91.9
2019-05-30T14:25:13.539Z,89.6
2019-05-30T14:27:12.720Z,90.3
2019-05-30T14:29:12.600Z,89.7
2019-05-30T14:31:13.648Z,90.4
2019-05-30T14:33:13.688Z,89.4
2019-05-30T14:35:13.924Z,90.7
2019-05-30T14:37:12.644Z,91.8
2019-05-30T14:39:13.239Z,91.1
2019-05-30T14:41:13.406Z,86.9
2019-05-30T14:43:13.506Z,88.1
2019-05-30T14:45:14.739Z,87.1
2019-05-30T14:47:12.454Z,83.7
2019-05-30T14:49:12.738Z,84.1
2019-05-30T14:51:12.955Z,83.4
2019-05-30T14:53:13.048Z,83.6
2019-05-30T14:55:13.373Z,83.1
2019-05-30T14:57:13.067Z,82.7
2019-05-30T14:59:11.592Z,83.1
2019-05-30T15:01:11.508Z,83.5
2019-05-30T15:03:14.666Z,85.5
2019-05-30T15:05:13.739Z,84.8
2019-05-30T15:07:11.478Z,84.4
2019-05-30T15:09:20.175Z,84.4
2019-05-30T15:11:11.715Z,84.7
2019-05-30T15:13:11.703Z,84.9
2019-05-30T15:15:19.869Z,84.2
2019-05-30T15:17:12.158Z,84.2
2019-05-30T15:19:12.167Z,82.9
2019-05-30T15:21:11.130Z,82.9
2019-05-30T15:23:11.691Z,83.1
2019-05-30T15:25:12.051Z,83.6
2019-05-30T15:27:12.126Z,82.9
2019-05-30T15:29:12.126Z,85.9
2019-05-30T15:31:10.936Z,85.5
2019-05-30T15:33:11.038Z,86
2019-05-30T15:35:12.776Z,85.6
2019-05-30T15:37:10.753Z,86.3
2019-05-30T15:39:10.910Z,83.9
2019-05-30T15:41:11.409Z,85.2
2019-05-30T15:43:11.681Z,85.7
2019-05-30T15:45:13.858Z,85
2019-05-30T15:47:10.576Z,84.8
2019-05-30T15:49:14.362Z,84.4
2019-05-30T15:51:10.695Z,84.5
2019-05-30T15:53:10.992Z,84.3
2019-05-30T15:55:11.382Z,83.9
2019-05-30T15:57:11.177Z,84
2019-05-30T15:59:11.619Z,82.5
2019-05-30T16:01:10.390Z,85.2
2019-05-30T16:03:10.555Z,86.3
2019-05-30T16:05:12.469Z,85.2
2019-05-30T16:07:10.562Z,82.7
2019-05-30T16:09:10.673Z,82.4
2019-05-30T16:11:10.761Z,84.1
2019-05-30T16:13:11.353Z,84.2
2019-05-30T16:15:11.692Z,83.2
2019-05-30T16:17:09.911Z,85
2019-05-30T16:19:17.963Z,84.9
2019-05-30T16:21:13.045Z,84.3
2019-05-30T16:23:09.902Z,83.6
2019-05-30T16:25:10.106Z,84.1
2019-05-30T16:27:09.660Z,84
2019-05-30T16:29:09.487Z,84.3
2019-05-30T16:31:09.384Z,83.5
2019-05-30T16:33:09.432Z,83
2019-05-30T16:35:09.523Z,83.4
2019-05-30T16:37:09.211Z,80.7
2019-05-30T16:39:09.507Z,77.6
2019-05-30T16:41:09.142Z,75.9
2019-05-30T16:43:09.067Z,73.9
2019-05-30T16:45:10.452Z,74.5
2019-05-30T16:47:09.170Z,73.9
2019-05-30T16:49:10.101Z,73.7
2019-05-30T16:51:09.145Z,75.2
2019-05-30T16:53:08.992Z,76.3
2019-05-30T16:55:09.738Z,77.3
2019-05-30T16:57:09.031Z,77.8
2019-05-30T16:59:08.951Z,77.3
2019-05-30T17:01:09.012Z,77.7
2019-05-30T17:03:08.955Z,79.8
2019-05-30T17:05:10.733Z,77.7
2019-05-30T17:07:08.813Z,79.9
2019-05-30T17:09:10.474Z,78.5
2019-05-30T17:11:08.891Z,78.3
2019-05-30T17:13:09.970Z,79.6
2019-05-30T17:15:10.462Z,79.9
2019-05-30T17:17:08.494Z,80.1
2019-05-30T17:19:08.936Z,80.8
2019-05-30T17:21:08.610Z,80.3
2019-05-30T17:23:08.383Z,81.2
2019-05-30T17:25:09.369Z,79.6
2019-05-30T17:27:08.536Z,79.8
2019-05-30T17:29:08.360Z,81.6
2019-05-30T17:31:08.205Z,80.4
2019-05-30T17:33:08.507Z,81.7
2019-05-30T17:35:09.565Z,81.6
2019-05-30T17:37:08.102Z,82.2
2019-05-30T17:39:08.546Z,82
2019-05-30T17:41:09.080Z,81.7
2019-05-30T17:43:08.096Z,82.8
2019-05-30T17:45:09.609Z,82
2019-05-30T17:47:07.714Z,82.3
2019-05-30T17:49:07.970Z,81.5
2019-05-30T17:51:07.939Z,81.9
2019-05-30T17:53:07.702Z,82.6
2019-05-30T17:55:09.667Z,84
2019-05-30T17:57:07.649Z,82
2019-05-30T17:59:07.485Z,82.3
2019-05-30T18:01:07.438Z,82.7
2019-05-30T18:03:07.420Z,82.6
2019-05-30T18:05:08.705Z,81.9
2019-05-30T18:07:07.359Z,83.7
2019-05-30T18:09:07.585Z,84.7
2019-05-30T18:11:07.052Z,82.5
2019-05-30T18:13:07.204Z,83.7
2019-05-30T18:15:08.797Z,82.3
2019-05-30T18:17:09.355Z,82.8
2019-05-30T18:19:06.773Z,83.2
2019-05-30T18:21:07.145Z,83.2
2019-05-30T18:23:06.831Z,83.1
2019-05-30T18:25:08.053Z,83
2019-05-30T18:27:07.951Z,84.4
2019-05-30T18:29:06.542Z,85
2019-05-30T18:31:06.417Z,85.2
2019-05-30T18:33:06.597Z,86.3
2019-05-30T18:35:06.644Z,85.8
2019-05-30T18:37:06.269Z,85
2019-05-30T18:39:07.850Z,86.1
2019-05-30T18:41:11.612Z,83.8
2019-05-30T18:43:06.214Z,83.4
2019-05-30T18:45:07.084Z,80.6
2019-05-30T18:47:05.827Z,82.5
2019-05-30T18:49:05.815Z,82.2
2019-05-30T18:51:06.125Z,83.9
2019-05-30T18:53:06.190Z,82.7
2019-05-30T18:55:06.558Z,80.3
2019-05-30T18:57:05.744Z,82.9
2019-05-30T18:59:05.638Z,81.4
2019-05-30T19:01:05.601Z,83
2019-05-30T19:03:05.635Z,83.3
2019-05-30T19:05:08.061Z,81.3
2019-05-30T19:07:05.327Z,79.9
2019-05-30T19:09:06.823Z,81.6
2019-05-30T19:11:04.964Z,80.7
2019-05-30T19:13:05.074Z,79.7
2019-05-30T19:15:07.121Z,81.3
2019-05-30T19:17:04.653Z,80
2019-05-30T19:19:04.674Z,79.8
2019-05-30T19:21:04.832Z,80.9
2019-05-30T19:23:04.527Z,77.8
2019-05-30T19:25:04.765Z,78.5
2019-05-30T19:27:04.360Z,78.9
2019-05-30T19:29:04.512Z,78.1
2019-05-30T19:31:04.027Z,78.1
2019-05-30T19:33:04.663Z,78.3
2019-05-30T19:35:04.549Z,78.7
2019-05-30T19:37:03.642Z,77.9
2019-05-30T19:39:05.458Z,78.4
2019-05-30T19:41:03.954Z,79.3
2019-05-30T19:43:03.704Z,78.8
2019-05-30T19:45:03.849Z,77.8
2019-05-30T19:47:03.786Z,78.4
2019-05-30T19:49:02.956Z,78.5
2019-05-30T19:51:03.078Z,78.4
2019-05-30T19:53:04.397Z,79.2
2019-05-30T19:55:03.108Z,78.3
2019-05-30T19:57:02.953Z,77.1
2019-05-30T19:59:02.722Z,77.4
2019-05-30T20:01:02.555Z,77.9
2019-05-30T20:03:02.557Z,78.2
2019-05-30T20:05:02.863Z,78
2019-05-30T20:07:02.371Z,77.7
2019-05-30T20:09:04.711Z,77.6
2019-05-30T20:11:02.234Z,78.2
2019-05-30T20:13:01.925Z,77.6
2019-05-30T20:15:02.406Z,78.3
2019-05-30T20:17:01.634Z,77.8
2019-05-30T20:19:01.603Z,78.3
2019-05-30T20:21:01.426Z,77.6
2019-05-30T20:23:01.253Z,78
2019-05-30T20:25:01.181Z,78.5
2019-05-30T20:27:01.286Z,77
2019-05-30T20:29:01.237Z,77.6
2019-05-30T20:31:00.988Z,77.4
2019-05-30T20:33:01.021Z,77.4
2019-05-30T20:35:00.741Z,76.6
2019-05-30T20:37:00.568Z,77
2019-05-30T20:39:01.205Z,76.1
2019-05-30T20:41:00.472Z,75.2
2019-05-30T20:43:00.315Z,74.9
2019-05-30T20:45:00.279Z,75.4
2019-05-30T20:47:00.137Z,76.2
2019-05-30T20:48:59.883Z,76.9
2019-05-30T20:50:59.935Z,76.2
2019-05-30T20:52:59.901Z,76.5
2019-05-30T20:54:59.660Z,76.7
2019-05-30T20:56:59.693Z,76.6
2019-05-30T20:58:59.928Z,76.6
2019-05-30T21:01:00.711Z,77.8
2019-05-30T21:02:59.398Z,78.1
2019-05-30T21:04:59.240Z,78.2
2019-05-30T21:06:59.334Z,78.4
2019-05-30T21:08:59.388Z,78.7
2019-05-30T21:11:00.428Z,79.1
2019-05-30T21:12:59.897Z,78.7
2019-05-30T21:15:02.733Z,79
2019-05-30T21:17:00.197Z,79
2019-05-30T21:18:59.043Z,79.4
2019-05-30T21:20:58.348Z,79.1
2019-05-30T21:22:58.403Z,79
2019-05-30T21:24:58.060Z,78.9
2019-05-30T21:26:57.990Z,78.7
2019-05-30T21:28:57.740Z,78.4
2019-05-30T21:30:57.512Z,78.2
2019-05-30T21:32:57.966Z,77.7
2019-05-30T21:34:57.620Z,77.7
2019-05-30T21:36:57.472Z,76.7
2019-05-30T21:38:57.324Z,76.7
2019-05-30T21:40:58.754Z,76.6
2019-05-30T21:43:05.774Z,76.7
2019-05-30T21:44:57.089Z,75.9
2019-05-30T21:46:56.899Z,75.9
2019-05-30T21:48:56.859Z,75.9
2019-05-30T21:50:56.846Z,75.6
2019-05-30T21:52:56.514Z,76.1
2019-05-30T21:54:56.369Z,75.8
2019-05-30T21:56:56.235Z,75.7
2019-05-30T21:58:57.319Z,76
2019-05-30T22:02:56.290Z,76.4
2019-05-30T22:04:55.885Z,75.6
2019-05-30T22:06:55.929Z,75.4
2019-05-30T22:08:55.870Z,75.4
2019-05-30T22:10:55.552Z,75.7
2019-05-30T22:13:09.016Z,76.1
2019-05-30T22:14:55.605Z,75.3
2019-05-30T22:16:55.466Z,74.6
2019-05-30T22:18:55.309Z,74.4
2019-05-30T22:20:55.258Z,75
2019-05-30T22:22:55.050Z,74.7
2019-05-30T22:24:54.908Z,74.7
2019-05-30T22:26:55.162Z,74.4
2019-05-30T22:28:54.941Z,74.8
2019-05-30T22:30:56.853Z,74.8
2019-05-30T22:32:54.898Z,74.8
2019-05-30T22:34:54.552Z,74.4
2019-05-30T22:36:54.498Z,74.9
2019-05-30T22:38:54.512Z,75
2019-05-30T22:40:54.535Z,74.9
2019-05-30T22:42:54.217Z,74.6
2019-05-30T22:44:54.126Z,74.8
2019-05-30T22:46:54.006Z,75
2019-05-30T22:48:54.161Z,75.3
2019-05-30T22:50:55.244Z,75.4
2019-05-30T22:52:55.037Z,75.1
2019-05-30T22:54:53.730Z,75.3
2019-05-30T22:56:53.686Z,75.4
2019-05-30T22:58:53.877Z,75.3
2019-05-30T23:00:54.084Z,75.7
2019-05-30T23:02:54.056Z,76.1
2019-05-30T23:04:54.274Z,76.6
2019-05-30T23:06:54.438Z,76.7
2019-05-30T23:08:53.177Z,76.4
2019-05-30T23:10:53.800Z,75.8
2019-05-30T23:12:53.982Z,76.1
2019-05-30T23:14:52.687Z,76.4
2019-05-30T23:16:52.528Z,76
2019-05-30T23:18:52.636Z,76
2019-05-30T23:20:52.763Z,76
2019-05-30T23:22:53.004Z,76.5
2019-05-30T23:24:53.821Z,76.4
2019-05-30T23:26:52.124Z,76.3
2019-05-30T23:28:52.037Z,76.5
2019-05-30T23:30:51.996Z,76.6
2019-05-30T23:32:52.138Z,76.8
2019-05-30T23:34:52.221Z,76.2
2019-05-30T23:36:52.446Z,76.8
2019-05-30T23:38:52.711Z,76.8
2019-05-30T23:40:51.456Z,76.5
2019-05-30T23:42:51.435Z,76.6
2019-05-30T23:44:51.357Z,76.4
2019-05-30T23:46:51.488Z,76.3
2019-05-30T23:48:51.536Z,76.3
2019-05-30T23:50:51.843Z,76.3
2019-05-30T23:52:51.896Z,76.6
2019-05-30T23:54:51.898Z,76.6
2019-05-30T23:56:50.717Z,77
2019-05-30T23:58:50.703Z,76.5
